createdAt,value
2022-08-09T00:01:52.592Z,18.80
2022-08-09T00:05:03.739Z,18.00
2022-08-09T00:08:32.655Z,22.30
2022-08-09T00:12:03.236Z,20.90
2022-08-09T00:14:57.473Z,20.50
2022-08-09T00:18:15.510Z,19.80
2022-08-09T00:21:20.856Z,20.90
2022-08-09T00:24:27.235Z,15.40
2022-08-09T00:27:29.458Z,18.30
2022-08-09T00:30:44.709Z,19.50
2022-08-09T00:33:51.261Z,20.80
2022-08-09T00:36:53.551Z,23.50
2022-08-09T00:40:13.730Z,20.20
2022-08-09T00:44:15.597Z,21.90
2022-08-09T00:46:57.531Z,15.60
2022-08-09T00:50:05.748Z,19.10
2022-08-09T00:53:10.295Z,17.80
2022-08-09T00:56:13.905Z,18.10
2022-08-09T00:59:15.758Z,21.20
2022-08-09T01:02:40.639Z,17.00
2022-08-09T01:06:17.569Z,19.80
2022-08-09T01:09:38.333Z,17.30
2022-08-09T01:12:50.877Z,16.90
2022-08-09T01:15:57.020Z,20.40
2022-08-09T01:19:04.922Z,24.00
2022-08-09T01:22:20.551Z,20.20
2022-08-09T01:26:00.362Z,23.00
2022-08-09T01:29:04.541Z,21.80
2022-08-09T01:32:31.645Z,21.50
2022-08-09T01:35:39.588Z,21.80
2022-08-09T01:38:46.770Z,23.70
2022-08-09T01:41:53.563Z,21.00
2022-08-09T01:45:03.600Z,21.20
2022-08-09T01:48:09.288Z,24.90
2022-08-09T01:51:12.283Z,19.70
2022-08-09T01:54:33.249Z,21.00
2022-08-09T01:57:45.707Z,18.10
2022-08-09T02:00:53.880Z,19.30
2022-08-09T02:03:57.304Z,20.90
2022-08-09T02:07:17.873Z,20.50
2022-08-09T02:10:33.750Z,23.30
2022-08-09T02:13:40.411Z,15.00
2022-08-09T02:16:59.029Z,18.40
2022-08-09T02:20:05.840Z,19.50
2022-08-09T02:23:14.502Z,19.20
2022-08-09T02:26:26.907Z,19.00
2022-08-09T02:29:32.736Z,17.90
2022-08-09T02:32:38.702Z,21.00
2022-08-09T02:36:03.223Z,20.60
2022-08-09T02:39:06.186Z,17.90
2022-08-09T02:42:10.595Z,18.70
2022-08-09T02:45:19.875Z,19.00
2022-08-09T02:48:30.677Z,19.60
2022-08-09T02:51:40.101Z,20.90
2022-08-09T02:54:54.523Z,19.30
2022-08-09T02:58:37.105Z,21.80
2022-08-09T03:01:29.485Z,21.00
2022-08-09T03:04:45.057Z,22.00
2022-08-09T03:07:55.105Z,21.90
2022-08-09T03:10:58.519Z,21.60
2022-08-09T03:14:02.428Z,21.80
2022-08-09T03:17:05.743Z,22.90
2022-08-09T03:20:11.124Z,21.30
2022-08-09T03:23:14.925Z,20.50
2022-08-09T03:26:22.358Z,21.90
2022-08-09T03:29:43.090Z,18.40
2022-08-09T03:32:57.348Z,20.90
2022-08-09T03:36:13.260Z,20.50
2022-08-09T03:39:18.015Z,23.30
2022-08-09T03:42:21.113Z,20.60
2022-08-09T03:46:04.814Z,22.70
2022-08-09T03:48:55.783Z,21.10
2022-08-09T03:52:00.332Z,24.40
2022-08-09T03:55:07.749Z,18.90
2022-08-09T03:58:16.863Z,21.60
2022-08-09T04:01:24.923Z,20.40
2022-08-09T04:04:32.643Z,18.00
2022-08-09T04:07:53.596Z,18.20
2022-08-09T04:11:01.368Z,17.00
2022-08-09T04:14:54.218Z,20.40
2022-08-09T04:17:25.149Z,17.80
2022-08-09T04:20:27.081Z,20.10
2022-08-09T04:23:30.894Z,18.90
2022-08-09T04:26:35.288Z,18.10
2022-08-09T04:29:40.082Z,18.20
2022-08-09T04:32:52.244Z,16.70
2022-08-09T04:35:55.911Z,15.50
2022-08-09T04:39:04.370Z,17.60
2022-08-09T04:42:06.470Z,18.10
2022-08-09T04:45:11.701Z,20.70
2022-08-09T04:48:15.604Z,15.10
2022-08-09T04:51:17.362Z,15.90
2022-08-09T04:54:22.148Z,18.20
2022-08-09T04:57:25.789Z,14.90
2022-08-09T05:00:31.958Z,15.70
2022-08-09T05:03:42.622Z,20.40
2022-08-09T05:06:45.858Z,19.70
2022-08-09T05:09:52.495Z,23.00
2022-08-09T05:12:54.765Z,18.80
2022-08-09T05:15:57.173Z,18.30
2022-08-09T05:19:00.521Z,13.00
2022-08-09T05:22:05.124Z,16.60
2022-08-09T05:25:28.338Z,13.40
2022-08-09T05:28:34.633Z,11.20
2022-08-09T05:31:44.216Z,14.80
2022-08-09T05:34:51.063Z,15.10
2022-08-09T05:37:53.174Z,14.10
2022-08-09T05:40:56.074Z,11.10
2022-08-09T05:43:57.954Z,11.80
2022-08-09T05:47:00.467Z,12.80
2022-08-09T05:50:30.399Z,14.60
2022-08-09T05:53:32.094Z,13.90
2022-08-09T05:56:35.868Z,14.50
2022-08-09T05:59:37.630Z,13.00
2022-08-09T06:02:46.503Z,12.00
2022-08-09T06:05:57.840Z,15.90
2022-08-09T06:09:23.087Z,17.70
2022-08-09T06:12:28.520Z,13.70
2022-08-09T06:15:30.601Z,16.30
2022-08-09T06:18:34.067Z,8.70
2022-08-09T06:21:35.784Z,11.30
2022-08-09T06:24:58.683Z,11.90
2022-08-09T06:28:02.600Z,14.40
2022-08-09T06:31:07.715Z,13.50
2022-08-09T06:34:32.613Z,10.20
2022-08-09T06:37:49.845Z,11.50
2022-08-09T06:41:01.075Z,11.60
2022-08-09T06:44:08.185Z,13.40
2022-08-09T06:47:10.049Z,11.20
2022-08-09T06:50:14.076Z,8.70
2022-08-09T06:53:21.056Z,12.20
2022-08-09T06:56:30.809Z,13.40
2022-08-09T07:00:54.407Z,10.00
2022-08-09T07:02:55.599Z,9.20
2022-08-09T07:06:03.897Z,7.60
2022-08-09T07:09:06.745Z,10.90
2022-08-09T07:12:41.121Z,8.80
2022-08-09T07:16:35.205Z,12.40
2022-08-09T07:19:06.155Z,10.50
2022-08-09T07:22:10.713Z,7.60
2022-08-09T07:25:13.440Z,6.50
2022-08-09T07:28:19.358Z,13.30
2022-08-09T07:31:28.119Z,13.10
2022-08-09T07:34:39.867Z,12.70
2022-08-09T07:37:45.721Z,11.20
2022-08-09T07:41:08.137Z,8.20
2022-08-09T07:44:09.662Z,10.40
2022-08-09T07:47:15.676Z,10.30
2022-08-09T07:50:19.877Z,9.30
2022-08-09T07:54:05.540Z,9.50
2022-08-09T07:57:00.361Z,10.90
2022-08-09T08:00:04.256Z,8.80
2022-08-09T08:03:08.415Z,5.60
2022-08-09T08:06:14.170Z,8.40
2022-08-09T08:09:36.420Z,11.40
2022-08-09T08:12:45.296Z,10.60
2022-08-09T08:15:48.593Z,10.90
2022-08-09T08:18:51.545Z,12.90
2022-08-09T08:21:54.904Z,7.70
2022-08-09T08:24:57.413Z,10.80
2022-08-09T08:27:59.395Z,11.50
2022-08-09T08:31:10.432Z,10.70
2022-08-09T08:34:16.345Z,11.40
2022-08-09T08:37:22.661Z,7.20
2022-08-09T08:40:27.077Z,9.00
2022-08-09T08:43:32.317Z,9.60
2022-08-09T08:46:59.776Z,12.40
2022-08-09T08:49:59.519Z,9.40
2022-08-09T08:53:04.776Z,10.90
2022-08-09T08:56:07.475Z,14.60
2022-08-09T08:59:20.094Z,9.60
2022-08-09T09:02:31.013Z,8.90
2022-08-09T09:05:58.457Z,14.10
2022-08-09T09:08:59.651Z,14.40
2022-08-09T09:12:02.487Z,11.80
2022-08-09T09:15:06.437Z,11.10
2022-08-09T09:18:14.852Z,10.10
2022-08-09T09:21:16.620Z,9.40
2022-08-09T09:24:29.905Z,8.40
2022-08-09T09:28:03.563Z,10.60
2022-08-09T09:30:56.013Z,10.60
2022-08-09T09:34:14.464Z,11.50
2022-08-09T09:37:31.868Z,12.10
2022-08-09T09:40:46.625Z,9.70
2022-08-09T09:44:10.810Z,14.50
2022-08-09T09:47:16.609Z,7.50
2022-08-09T09:50:23.208Z,6.50
2022-08-09T09:53:57.167Z,10.20
2022-08-09T09:58:00.272Z,10.40
2022-08-09T10:00:26.707Z,12.10
2022-08-09T10:04:00.155Z,11.10
2022-08-09T10:07:09.942Z,10.40
2022-08-09T10:10:12.103Z,11.50
2022-08-09T10:13:13.941Z,10.00
2022-08-09T10:16:57.900Z,8.90
2022-08-09T10:20:00.385Z,11.80
2022-08-09T10:23:28.777Z,9.10
2022-08-09T10:26:31.263Z,13.80
2022-08-09T10:30:43.956Z,9.90
2022-08-09T10:32:57.231Z,5.10
2022-08-09T10:36:02.312Z,6.40
2022-08-09T10:39:13.939Z,7.20
2022-08-09T14:59:48.548Z,7.20
2022-08-09T15:02:54.690Z,8.40
2022-08-09T15:06:00.272Z,7.70
2022-08-09T15:09:07.094Z,6.70
2022-08-09T15:12:11.795Z,10.80
2022-08-09T15:15:13.622Z,10.60
2022-08-09T15:18:15.691Z,8.70
2022-08-09T15:21:55.795Z,10.20
2022-08-09T15:24:42.133Z,7.10
2022-08-09T15:27:55.206Z,13.10
2022-08-09T15:31:08.692Z,10.70
2022-08-09T15:34:31.550Z,11.40
2022-08-09T15:37:37.807Z,10.80
2022-08-09T15:40:57.236Z,9.30
2022-08-09T15:44:02.005Z,10.00
2022-08-09T15:47:05.195Z,7.20
2022-08-09T15:50:09.774Z,9.10
2022-08-09T15:54:02.430Z,12.30
2022-08-09T15:56:36.749Z,8.10
2022-08-09T15:59:39.360Z,10.10
2022-08-09T16:02:53.370Z,12.80
2022-08-09T16:06:02.818Z,8.40
2022-08-09T16:09:06.310Z,11.70
2022-08-09T16:12:11.462Z,11.00
2022-08-09T16:16:04.628Z,7.80
2022-08-09T16:18:35.155Z,13.70
2022-08-09T16:21:38.322Z,7.60
2022-08-09T16:24:40.133Z,9.00
2022-08-09T16:27:47.914Z,8.60
2022-08-09T16:30:59.340Z,12.60
2022-08-09T16:34:03.892Z,13.20
2022-08-09T16:37:07.902Z,13.30
2022-08-09T16:40:29.510Z,12.60
2022-08-09T16:43:40.560Z,10.40
2022-08-09T16:46:55.081Z,11.50
2022-08-09T16:50:29.656Z,10.40
2022-08-09T16:53:32.293Z,8.40
2022-08-09T16:56:36.511Z,11.80
2022-08-09T16:59:38.376Z,8.80
2022-08-09T17:02:46.195Z,10.20
2022-08-09T17:06:03.477Z,9.60
2022-08-09T17:09:45.193Z,12.00
2022-08-09T17:12:32.595Z,14.80
2022-08-09T17:16:00.013Z,7.90
2022-08-09T17:18:56.712Z,12.70
2022-08-09T17:22:00.263Z,9.80
2022-08-09T17:25:09.817Z,8.90
2022-08-09T17:28:13.778Z,15.90
2022-08-09T17:31:16.236Z,10.60
2022-08-09T17:35:00.850Z,11.10
2022-08-09T17:38:10.265Z,14.80
2022-08-09T17:41:04.228Z,15.00
2022-08-09T17:44:38.215Z,13.70
2022-08-09T17:47:28.862Z,13.40
2022-08-09T17:50:36.841Z,22.90
2022-08-09T17:53:43.045Z,16.70
2022-08-09T17:56:49.658Z,18.30
2022-08-09T18:00:05.546Z,16.00
2022-08-09T18:03:09.368Z,18.30
2022-08-09T18:06:14.907Z,12.30
2022-08-09T18:09:40.774Z,12.60
2022-08-09T18:13:43.601Z,13.50
2022-08-09T18:16:08.726Z,13.20
2022-08-09T18:20:57.914Z,12.20
2022-08-09T18:22:34.108Z,13.30
2022-08-09T18:25:50.543Z,11.30
2022-08-09T18:30:39.645Z,14.80
2022-08-09T18:32:19.110Z,15.40
2022-08-09T18:35:21.185Z,17.70
2022-08-09T18:38:43.041Z,12.70
2022-08-09T18:41:52.952Z,15.90
2022-08-09T18:44:55.473Z,17.70
2022-08-09T18:47:58.863Z,18.10
2022-08-09T18:51:01.912Z,16.00
2022-08-09T18:54:12.589Z,21.00
2022-08-09T18:57:22.020Z,18.80
2022-08-09T19:00:25.700Z,19.00
2022-08-09T19:03:28.886Z,18.00
2022-08-09T19:06:30.781Z,21.10
2022-08-09T19:10:12.824Z,21.30
2022-08-09T19:13:16.520Z,21.00
2022-08-09T19:16:21.035Z,22.10
2022-08-09T19:19:26.018Z,23.50
2022-08-09T19:22:30.195Z,24.20
2022-08-09T19:25:42.815Z,25.30
2022-08-09T19:28:53.968Z,26.10
2022-08-09T19:31:59.885Z,24.40
2022-08-09T19:35:02.300Z,22.80
2022-08-09T19:38:04.351Z,26.00
2022-08-09T19:41:06.018Z,22.30
2022-08-09T19:44:07.852Z,23.20
2022-08-09T19:47:11.133Z,27.00
2022-08-09T19:50:50.499Z,24.40
2022-08-09T19:53:37.192Z,31.90
2022-08-09T19:56:47.437Z,28.70
2022-08-09T19:59:59.354Z,27.70
2022-08-09T20:04:08.592Z,28.20
2022-08-09T20:06:31.547Z,35.00
2022-08-09T20:09:43.795Z,35.70
2022-08-09T20:12:47.729Z,25.20
2022-08-09T20:16:32.803Z,21.10
2022-08-09T20:19:47.824Z,21.70
2022-08-09T20:22:37.775Z,22.20
2022-08-09T20:25:51.542Z,25.20
2022-08-09T20:28:54.824Z,24.20
2022-08-09T20:32:30.185Z,27.50
2022-08-09T20:35:18.726Z,26.90
2022-08-09T20:38:30.239Z,28.20
2022-08-09T20:41:42.607Z,23.40
2022-08-09T20:44:50.662Z,26.70
2022-08-09T20:48:02.361Z,26.40
2022-08-09T20:51:05.844Z,26.70
2022-08-09T20:54:07.698Z,30.20
2022-08-09T20:57:14.741Z,22.70
2022-08-09T21:00:31.155Z,24.50
2022-08-09T21:03:39.422Z,25.70
2022-08-09T21:06:55.865Z,30.60
2022-08-09T21:09:58.476Z,23.70
2022-08-09T21:13:00.647Z,27.80
2022-08-09T21:16:02.426Z,25.90
2022-08-09T21:20:14.589Z,28.30
2022-08-09T21:22:38.413Z,30.00
2022-08-09T21:25:59.426Z,30.80
2022-08-09T21:29:01.865Z,27.90
2022-08-09T21:32:18.493Z,32.40
2022-08-09T21:35:21.942Z,33.50
2022-08-09T21:38:31.030Z,26.60
2022-08-09T21:42:03.661Z,28.30
2022-08-09T21:44:56.233Z,30.20
2022-08-09T21:47:59.019Z,29.70
2022-08-09T21:51:00.668Z,26.20
2022-08-09T21:54:04.844Z,26.60
2022-08-09T21:57:06.678Z,29.70
2022-08-09T22:00:32.297Z,27.40
2022-08-09T22:03:34.935Z,24.90
2022-08-09T22:06:59.152Z,29.50
2022-08-09T22:10:06.526Z,28.70
2022-08-09T22:13:11.460Z,23.80
2022-08-09T22:16:13.374Z,26.40
2022-08-09T22:19:59.131Z,26.30
2022-08-09T22:22:39.318Z,27.70
2022-08-09T22:26:05.334Z,24.90
2022-08-09T22:29:07.183Z,24.10
2022-08-09T22:32:29.267Z,21.00
2022-08-09T22:36:01.824Z,24.50
2022-08-09T22:38:53.119Z,23.50
2022-08-09T22:41:55.037Z,24.90
2022-08-09T22:48:05.967Z,23.60
2022-08-09T22:48:35.194Z,22.80
2022-08-09T22:51:49.233Z,26.90
2022-08-09T22:54:51.806Z,29.80
2022-08-09T22:57:59.919Z,26.10
2022-08-09T23:01:05.506Z,24.40
2022-08-09T23:04:07.790Z,24.60
2022-08-09T23:08:21.285Z,21.80
2022-08-09T23:10:50.492Z,25.10
2022-08-09T23:13:55.287Z,22.30
2022-08-09T23:16:57.226Z,20.00
2022-08-09T23:20:07.348Z,24.60
2022-08-09T23:23:10.179Z,27.50
2022-08-09T23:26:11.863Z,20.90
2022-08-09T23:29:14.043Z,21.90
2022-08-09T23:32:16.549Z,22.70
2022-08-09T23:35:18.378Z,20.00
2022-08-09T23:38:21.578Z,21.20
2022-08-09T23:41:28.851Z,21.70
2022-08-09T23:44:31.245Z,22.40
2022-08-09T23:47:34.104Z,22.10
2022-08-09T23:50:36.135Z,21.70
2022-08-09T23:53:38.534Z,25.00
2022-08-09T23:56:54.886Z,19.90
